Flight Track Log - Related Links

Times and Time Zones

All times are in EDT time to prevent confusion due to time zone crossing. See the FEX11 flight status page for this flight to view local times or setup timezone preferences in your user account.

Time Position Orientation Groundspeed Altitude Reporting Facility
EDT Latitude Longitude Course Direction KTS MPH feet Rate Location/Type
Thu 08:47:30 AM 43.8667 -79.3500 147° Southeast 140 161 1,300  Level Toronto Center
Thu 08:48:30 AM 43.9167 -79.4000 324° Northwest 210 242 2,900 1,000 Climbing Toronto Center
Thu 08:49:30 AM 43.9333 -79.3167 74° East 250 288 3,300 1,250 Climbing Toronto Center
Thu 08:50:30 AM 43.8667 -79.2667 152° Southeast 280 322 5,400 2,350 Climbing Toronto Center
Thu 08:51:30 AM 43.7833 -79.2167 157° South 330 380 8,000 2,800 Climbing Toronto Center
Thu 08:52:00 AM 43.8603 -79.3683 147° Southeast  Level FlightAware Approximate
Thu 08:52:30 AM 43.6833 -79.1667 160° South 360 414 11,000  Level Toronto Center
Thu 08:53:30 AM 43.6000 -79.0833 144° Southeast 370 426 14,200 2,850 Climbing Toronto Center
Thu 08:54:30 AM 43.5500 -78.9667 121° Southeast 380 437 16,700 2,500 Climbing Toronto Center
Thu 08:55:30 AM 43.5333 -78.8333 100° East 380 437 19,200 2,100 Climbing Toronto Center
Thu 08:56:30 AM 43.5167 -78.6667 98° East 390 449 20,900 1,793 Climbing Toronto Center
Thu 08:56:57 AM 43.5125 -78.6167 97° East 389 448 21,800 2,207 Climbing Cleveland Center
Thu 08:57:57 AM 43.4933 -78.4628 100° East 407 468 24,100 2,083 Climbing Cleveland Center
Thu 08:58:58 AM 43.4714 -78.3064 101° East 413 475 26,000 1,700 Climbing Cleveland Center
Thu 08:59:57 AM 43.4475 -78.1442 101° East 418 481 27,500 1,563 Climbing Cleveland Center
Thu 09:00:57 AM 43.4250 -77.9822 101° East 424 488 29,100 1,686 Climbing Cleveland Center
Thu 09:01:58 AM 43.4006 -77.8175 101° East 429 494 30,900 942 Climbing Cleveland Center
Thu 09:02:58 AM 43.3756 -77.6472 101° East 429 494 31,000 50 Climbing Cleveland Center
Thu 09:03:57 AM 43.3522 -77.4742 100° East 446 513 31,000  Level Cleveland Center
Thu 09:04:58 AM 43.3244 -77.2986 102° East 452 520 31,000  Level Cleveland Center
Thu 09:06:30 AM 43.2667 -77.0000 105° East 480 552 31,000  Level Toronto Center
Thu 09:07:30 AM 43.2500 -76.8167 97° East 470 541 31,000  Level Toronto Center
Thu 09:08:30 AM 43.2167 -76.6333 104° East 470 541 31,000  Level Toronto Center
Thu 09:09:30 AM 43.1833 -76.4833 107° East 460 529 31,000  Level Toronto Center
Thu 09:10:30 AM 43.1667 -76.3000 97° East 450 518 31,000  Level Toronto Center
Thu 09:11:30 AM 43.1500 -76.1333 98° East 460 529 31,000  Level Toronto Center
Thu 09:12:30 AM 43.1000 -75.9500 110° East 460 529 31,000  Level Toronto Center
Thu 09:13:30 AM 43.0833 -75.8000 99° East 450 518 31,000  Level Toronto Center
Thu 09:14:30 AM 43.0667 -75.6333 98° East 450 518 31,000  Level Toronto Center
Thu 09:15:30 AM 43.0333 -75.4833 107° East 440 506 31,000  Level Toronto Center
Thu 09:16:30 AM 43.0000 -75.3000 104° East 450 518 31,000 -250 Level Toronto Center
Thu 09:17:30 AM 42.9667 -75.1500 107° East 450 518 30,500 -700 Descending Toronto Center
Thu 09:18:30 AM 42.9500 -74.9833 98° East 450 518 29,600 -750 Descending Toronto Center
Thu 09:19:30 AM 42.9167 -74.8333 107° East 430 495 29,000 -279 Descending Toronto Center
Thu 09:20:39 AM 42.9033 -74.6850 97° East 432 497 29,000  Level Boston Center
Thu 09:21:39 AM 42.8753 -74.5253 103° East 432 497 29,000  Level Boston Center
Thu 09:22:39 AM 42.8428 -74.3600 105° East 438 504 29,000 -50 Level Boston Center
Thu 09:23:39 AM 42.8183 -74.1950 101° East 438 504 28,900 -500 Descending Boston Center
Thu 09:24:39 AM 42.7853 -74.0328 105° East 438 504 28,000 -900 Descending Boston Center
Thu 09:25:39 AM 42.7561 -73.8708 104° East 438 504 27,100 -900 Descending Boston Center
Thu 09:26:39 AM 42.7500 -73.6842 92° East 438 504 26,200 -864 Descending Boston Center
Thu 09:27:51 AM 42.7661 -73.5261 82° East 454 522 25,200 -1,045 Descending Boston Center
Thu 09:28:51 AM 42.7722 -73.3028 88° East 460 529 23,900 -1,200 Descending Boston Center
Thu 09:29:51 AM 42.7400 -73.1525 106° East 450 518 22,800 -950 Descending Boston Center
Thu 09:30:51 AM 42.7078 -72.9628 103° East 457 526 22,000 -850 Descending Boston Center
Thu 09:31:51 AM 42.6833 -72.8044 102° East 450 518 21,100 -1,300 Descending Boston Center
Thu 09:32:51 AM 42.6525 -72.6461 105° East 439 505 19,400 -1,818 Descending Boston Center
Thu 09:34:03 AM 42.6256 -72.4794 102° East 424 488 17,100 -2,227 Descending Boston Center
Thu 09:35:03 AM 42.5919 -72.3131 105° East 409 471 14,500 -2,300 Descending Boston Center
Thu 09:36:03 AM 42.5689 -72.1864 104° East 397 457 12,500 -1,850 Descending Boston Center
Thu 09:37:03 AM 42.5414 -72.0286 103° East 387 445 10,800 -1,350 Descending Boston Center
Thu 09:38:03 AM 42.5347 -71.9272 95° East 334 384 9,800 -1,450 Descending Boston Center
Thu 09:39:03 AM 42.5258 -71.8428 98° East 296 341 7,900 -2,150 Descending Boston Center
Thu 09:40:03 AM 42.5336 -71.7103 85° East 285 328 5,500 -2,092 Descending Boston Center
Thu 09:40:52 AM 42.5500 -71.6167 77° East 265 305 4,100 -1,364 Descending KA90
Thu 09:41:53 AM 42.5500 -71.5167 90° East 256 295 3,000 -492 Descending KA90
Thu 09:42:54 AM 42.5667 -71.4167 77° East 253 291 3,100 52 Climbing KA90
Thu 09:43:48 AM 42.5667 -71.3333 90° East 254 292 3,100 -482 Level KA90
Thu 09:44:46 AM 42.5667 -71.2500 90° East 241 277 2,200 -508 Descending KA90
Thu 09:45:46 AM 42.5667 -71.1667 90° East 210 242 2,100 -99 Descending KA90
Thu 09:46:47 AM 42.5500 -71.1000 109° East 208 239 2,000  Descending KA90
Thu 09:47:47 AM 42.5000 -71.0667 154° Southeast 205 236 2,100 50 Climbing KA90
Thu 09:48:47 AM 42.4667 -71.1000 216° Southwest 183 211 2,100 -99 Level KA90
Thu 09:49:48 AM 42.4667 -71.1667 270° West 179 206 1,900 -605 Descending KA90
Thu 09:50:46 AM 42.4667 -71.2167 270° West 145 167 900 -1,034 Descending KA90
Thu 09:54:00 AM 42.4667 -71.2833 264° West  Level FlightAware Approximate

Login

Don't have an account? Register now (free) for customized features, flight alerts, and more!